Time;durP1;ratioP1;P1;durP2;ratioP2;P2;SDS_P1;SDS_P2;PMS_P1;PMS_P2;Temp;Humidity;BMP_temperature;BMP_pressure;BME280_temperature;BME280_humidity;BME280_pressure;Samples;Min_cycle;Max_cycle;Signal;HPM_P1;HPM_P2
2021/11/01 00:00:44;;;;;;;53.03;32.22;;;;;;;4.36;100.00;101177.62;2578206;55;20136;-74
2021/11/01 00:03:13;;;;;;;48.15;30.98;;;;;;;4.39;100.00;101174.84;2578104;55;20623;-74
2021/11/01 00:05:44;;;;;;;52.15;31.35;;;;;;;4.45;100.00;101193.13;2578181;55;20127;-75
2021/11/01 00:08:12;;;;;;;;;;;;;;;4.59;100.00;101196.03;2578709;55;20119;-75
2021/11/01 00:10:39;;;;;;;46.30;27.98;;;;;;;4.52;100.00;101194.59;2578296;55;19996;-74
2021/11/01 00:13:07;;;;;;;46.47;28.58;;;;;;;4.54;100.00;101197.13;2578269;55;20109;-75
2021/11/01 00:15:35;;;;;;;41.67;26.17;;;;;;;4.57;100.00;101197.03;2578210;55;20117;-75
2021/11/01 00:18:03;;;;;;;43.10;26.33;;;;;;;4.59;100.00;101200.47;2578311;55;20117;-75
2021/11/01 00:20:31;;;;;;;42.95;25.42;;;;;;;4.61;100.00;101190.69;2578319;55;20135;-75
2021/11/01 00:23:01;;;;;;;41.92;26.10;;;;;;;4.60;100.00;101200.38;2578093;55;20115;-74
2021/11/01 00:25:28;;;;;;;40.42;24.95;;;;;;;4.66;100.00;101199.28;2578349;55;20117;-75
2021/11/01 00:27:56;;;;;;;40.88;25.83;;;;;;;4.69;100.00;101198.28;2578426;55;20120;-75
2021/11/01 00:30:25;;;;;;;43.40;26.27;;;;;;;4.70;100.00;101203.50;2578461;55;20632;-75
2021/11/01 00:32:53;;;;;;;37.03;23.58;;;;;;;4.71;100.00;101204.34;2578133;55;20119;-74
2021/11/01 00:35:20;;;;;;;41.63;25.25;;;;;;;4.68;100.00;101194.78;2573086;55;20577;-74
2021/11/01 00:37:49;;;;;;;40.17;25.17;;;;;;;4.65;100.00;101191.41;2578323;55;20615;-74
2021/11/01 00:40:18;;;;;;;41.58;24.70;;;;;;;4.67;100.00;101192.19;2578120;55;20114;-74
2021/11/01 00:42:45;;;;;;;40.72;23.90;;;;;;;4.66;100.00;101193.13;2578211;55;20132;-74
2021/11/01 00:45:13;;;;;;;40.67;25.15;;;;;;;4.69;100.00;101190.34;2578082;55;20236;-75
2021/11/01 00:47:41;;;;;;;41.95;25.15;;;;;;;4.69;100.00;101201.78;2578457;55;20518;-75
2021/11/01 00:50:09;;;;;;;44.63;25.45;;;;;;;4.69;100.00;101208.84;2578144;55;20127;-76
2021/11/01 00:52:38;;;;;;;34.78;23.12;;;;;;;4.72;100.00;101212.22;2578145;55;20117;-74
2021/11/01 00:55:10;;;;;;;42.22;25.33;;;;;;;4.73;100.00;101207.81;2578140;55;20117;-74
2021/11/01 16:20:17;;;;;;;72.70;45.10;;;;;;;6.07;100.00;101374.03;2572774;55;20108;-75
2021/11/01 16:22:47;;;;;;;89.18;54.20;;;;;;;6.02;100.00;101383.97;2578737;55;20139;-74
2021/11/01 16:25:18;;;;;;;87.53;50.63;;;;;;;5.98;100.00;101378.75;2573281;55;20113;-75
2021/11/01 16:27:49;;;;;;;107.55;71.85;;;;;;;5.95;100.00;101388.63;2578244;55;20560;-74
2021/11/01 16:30:22;;;;;;;50.33;32.47;;;;;;;5.95;100.00;101384.22;2578347;55;20131;-76
2021/11/01 16:32:56;;;;;;;44.13;30.15;;;;;;;5.89;100.00;101383.63;2579296;55;20113;-74
2021/11/01 16:35:34;;;;;;;46.53;30.45;;;;;;;5.85;100.00;101383.75;2579148;55;20585;-74
2021/11/01 16:38:09;;;;;;;47.42;28.23;;;;;;;5.82;100.00;101385.69;2579174;55;20140;-74
2021/11/01 16:40:42;;;;;;;48.72;30.55;;;;;;;5.78;100.00;101387.62;2574156;55;20109;-74
2021/11/01 16:43:15;;;;;;;47.15;29.75;;;;;;;5.68;100.00;101387.16;2574081;55;20117;-74
2021/11/01 16:45:49;;;;;;;38.90;26.20;;;;;;;5.65;100.00;101386.41;2579235;55;20109;-74
2021/11/01 16:48:26;;;;;;;42.10;25.90;;;;;;;5.65;100.00;101391.72;2579232;55;20117;-75
2021/11/01 16:50:58;;;;;;;42.05;26.20;;;;;;;5.60;100.00;101386.63;2579070;55;20121;-74
2021/11/01 16:53:28;;;;;;;35.53;23.85;;;;;;;5.58;100.00;101396.41;2579309;55;20106;-75
2021/11/01 16:56:15;;;;;;;42.97;25.92;;;;;;;5.63;100.00;101394.44;2579156;55;20117;-74
2021/11/01 16:58:52;;;;;;;43.30;23.85;;;;;;;5.66;100.00;101396.94;2579238;55;20624;-75
2021/11/01 17:01:27;;;;;;;38.50;24.87;;;;;;;5.73;100.00;101392.25;2579290;55;20109;-74
2021/11/01 17:04:01;;;;;;;35.80;23.35;;;;;;;5.67;100.00;101393.37;2579043;55;20118;-75
2021/11/01 17:06:40;;;;;;;40.03;24.55;;;;;;;5.68;100.00;101387.16;2578870;55;20106;-75
2021/11/01 17:09:34;;;;;;;41.50;24.17;;;;;;;5.66;100.00;101375.78;2578843;55;20539;-75
2021/11/01 17:23:36;;;;;;;42.05;26.52;;;;;;;5.52;100.00;101391.41;2574182;55;20690;-75
2021/11/01 17:26:10;;;;;;;41.28;23.38;;;;;;;5.49;100.00;101391.53;2579169;55;20629;-75
2021/11/01 17:28:49;;;;;;;38.00;24.48;;;;;;;5.45;100.00;101396.09;2579127;55;20105;-75
2021/11/01 17:35:02;;;;;;;35.88;21.42;;;;;;;5.40;100.00;101383.03;2578922;55;20196;-75
2021/11/01 17:37:38;;;;;;;35.13;22.27;;;;;;;5.29;100.00;101395.87;2579001;55;20113;-74
2021/11/01 18:41:41;;;;;;;37.65;25.08;;;;;;;4.63;100.00;101408.22;2556604;56;20141;-75
2021/11/01 18:52:36;;;;;;;47.35;26.83;;;;;;;4.55;100.00;101411.16;2578596;55;20124;-75
2021/11/01 18:55:08;;;;;;;42.72;22.40;;;;;;;4.58;100.00;101411.03;2578585;55;20512;-74
2021/11/01 18:57:35;;;;;;;;;;;;;;;4.72;100.00;101407.84;2579094;55;20113;-75
2021/11/01 19:00:07;;;;;;;43.83;24.60;;;;;;;4.65;100.00;101405.53;2573506;55;20501;-74
2021/11/01 19:02:44;;;;;;;45.22;25.62;;;;;;;4.65;100.00;101401.06;2578785;55;20113;-74
2021/11/01 19:05:21;;;;;;;43.40;27.62;;;;;;;4.56;100.00;101410.25;2578617;55;20117;-74
2021/11/01 19:07:58;;;;;;;44.05;26.23;;;;;;;4.53;100.00;101413.00;2578485;55;20139;-74
2021/11/01 20:12:39;;;;;;;35.17;22.37;;;;;;;4.36;100.00;101415.44;2578296;55;20531;-77
2021/11/01 21:25:02;;;;;;;34.20;19.55;;;;;;;4.22;100.00;101427.38;2578938;55;20114;-75
2021/11/01 21:27:31;;;;;;;38.95;22.75;;;;;;;4.23;100.00;101426.47;2578812;55;20113;-74
2021/11/01 21:29:59;;;;;;;38.90;21.92;;;;;;;4.20;100.00;101423.06;2578969;55;20134;-75
2021/11/01 21:32:28;;;;;;;38.88;22.65;;;;;;;4.21;100.00;101423.03;2578938;55;20113;-74
2021/11/01 21:34:59;;;;;;;40.65;22.95;;;;;;;4.17;100.00;101427.56;2578878;55;20109;-75
2021/11/01 21:37:27;;;;;;;37.10;22.75;;;;;;;4.20;100.00;101421.28;2578874;55;20491;-73
2021/11/01 21:39:57;;;;;;;42.90;24.52;;;;;;;4.13;100.00;101410.06;2578797;55;20113;-75
2021/11/01 21:42:25;;;;;;;36.08;21.95;;;;;;;4.21;100.00;101415.09;2578863;55;20663;-75
2021/11/01 21:44:53;;;;;;;38.72;22.77;;;;;;;4.15;100.00;101423.25;2578819;55;20194;-75
2021/11/01 21:47:21;;;;;;;42.28;24.95;;;;;;;4.18;100.00;101426.63;2578928;55;20660;-74
2021/11/01 21:49:50;;;;;;;39.08;22.80;;;;;;;4.13;100.00;101414.53;2578724;55;20109;-75
2021/11/01 21:52:18;;;;;;;35.83;22.48;;;;;;;4.10;100.00;101417.25;2578955;55;20608;-73
2021/11/01 21:54:50;;;;;;;38.08;23.05;;;;;;;4.13;100.00;101415.34;2578804;55;20132;-75
2021/11/01 21:57:23;;;;;;;36.15;22.65;;;;;;;4.09;100.00;101411.12;2578916;55;20121;-74
2021/11/01 22:17:02;;;;;;;39.00;21.15;;;;;;;3.71;100.00;101401.03;2561851;56;20202;-74
2021/11/01 22:25:18;;;;;;;37.97;20.65;;;;;;;3.59;100.00;101404.09;2575734;55;20124;-74
2021/11/01 22:33:40;;;;;;;39.08;20.95;;;;;;;3.37;100.00;101412.75;2578682;55;20172;-74
2021/11/01 22:39:09;;;;;;;33.88;20.92;;;;;;;3.34;100.00;101420.75;2573639;55;20669;-74
2021/11/01 22:55:49;;;;;;;34.33;19.62;;;;;;;3.11;100.00;101409.22;2578529;55;20114;-75
2021/11/01 22:58:23;;;;;;;37.65;21.98;;;;;;;3.04;100.00;101407.69;2578590;55;20232;-74
2021/11/01 23:00:55;;;;;;;46.13;22.15;;;;;;;3.02;100.00;101414.78;2578893;55;20125;-75
2021/11/01 23:03:27;;;;;;;37.63;22.13;;;;;;;2.88;100.00;101408.16;2578743;55;20645;-74
2021/11/01 23:33:31;;;;;;;38.97;23.25;;;;;;;2.52;100.00;101413.69;2578601;55;20113;-74
2021/11/01 23:35:59;;;;;;;37.78;22.60;;;;;;;2.54;100.00;101409.22;2578472;55;20121;-74
2021/11/01 23:38:27;;;;;;;41.42;24.30;;;;;;;2.57;100.00;101414.38;2578417;55;20122;-74
2021/11/01 23:40:54;;;;;;;40.72;23.73;;;;;;;2.48;100.00;101417.31;2578507;55;20507;-76
2021/11/01 23:43:24;;;;;;;44.53;24.17;;;;;;;2.45;100.00;101409.50;2578504;55;20507;-75
2021/11/01 23:45:51;;;;;;;41.80;24.50;;;;;;;2.44;100.00;101413.88;2578700;55;20105;-74
2021/11/01 23:48:19;;;;;;;45.25;23.33;;;;;;;2.45;100.00;101410.34;2578509;55;20126;-75
2021/11/01 23:50:49;;;;;;;39.00;21.50;;;;;;;2.45;100.00;101406.87;2578519;55;20106;-74
2021/11/01 23:53:20;;;;;;;44.70;25.42;;;;;;;2.36;100.00;101403.59;2578408;55;20126;-77
2021/11/01 23:55:48;;;;;;;40.30;23.07;;;;;;;2.35;100.00;101406.25;2578630;55;20113;-74
2021/11/01 23:58:16;;;;;;;47.85;24.45;;;;;;;2.34;100.00;101407.16;2578554;55;20763;-74
